Current Weather

Moundou

Moundou, Chad (FTTD)

Report from: Wednesday, May 29, 2024 9:00 AM WAT
Current time: Wednesday, May 29, 2024 9:40 AM WAT

Nearby weather – Weather history – Daily summaries
Weather forecast

Temperature28.0°C (82.4°F)
Heat index29.9°C (85.8°F)
Dew point20.0°C (68.0°F)
Winds Calm
Clouds Sky clear
Altimeter29.94 in.Hg (1014 mB)
Relative humidity62 %
Density altitude1,788 ft. (545 m)
Remarks Ceiling and visibility OK
Flight conditions Visual Meteorological Conditions
Raw dataFTTD 290800Z 00000KT CAVOK 28/20 Q1014
An error has occurred. This application may no longer respond until reloaded. Reload 🗙